TAF and METAR

Decoding for American and Canadian METARs and TAFs is not fully implemented.

Could not understand the following METAR

PAGM 141456Z AUTO 36022KT 10SM OVC010 M16/M17 A2961 RMK AO2 PK WND 36027/1452 SLP035 T11561172 51000 FZRANO
No TAF available for Gambell Airport
Gambell Airport in United States of America at 8m

Latest 5 airports